PWSweather.com
Personal Weather Stations
Station Observations
IMAZOWIE6
WarszawaPL

WarszawaPL

Lat: 52.27957, Lon: 21.05489

Elevation: 100

Station Type: WS1080

http://stacjapogody.waw.pl/

High Low Average
Temperature 50.0°F10.0°C 42.3°F5.7°C 46.5°F8.1°C
Dew Point 13.4°F-10.3°C -168.6°F-111.4°C -99.8°F-73.2°C
Winds 4.0 mph 6.4 kmh Calm Calm 2.0 mph N3.2 kmh N
Wind Gusts 9.6 mph15.4 kmh 1.4 mph2.3 kmh 4.0 mph6.4 kmh
Humidity 23% 10% 15%
Pressure 29.62 in1003.0 mb 29.42 in996.3 mb -
Precipitation 0.00 in0.0 mm - -
Hour Temp Dew Point Humidity Winds Wind Gusts Pressure Precip Precip Rate Daily Precip Total
12:05 AM 41.7°F5.4°C -168.6°F-111.4°C - 0.6 mph N1.0 kmh N 4.0 mph6.4 kmh 29.63 in1003.4 mb 0.00 in0.0 mm 0.00 in0.0 mm 0.00 in0.0 mm
12:20 AM 41.9°F5.5°C -168.6°F-111.4°C - Calm Calm 3.4 mph5.5 kmh 29.64 in1003.7 mb 0.00 in0.0 mm 0.00 in0.0 mm 0.00 in0.0 mm
12:35 AM 41.9°F5.5°C -168.6°F-111.4°C - Calm Calm 2.0 mph3.2 kmh 29.63 in1003.4 mb 0.00 in0.0 mm 0.00 in0.0 mm 0.00 in0.0 mm
12:50 AM 42.3°F5.7°C -168.6°F-111.4°C - Calm Calm 0.6 mph1.0 kmh 29.63 in1003.4 mb 0.00 in0.0 mm 0.00 in0.0 mm 0.00 in0.0 mm
01:05 AM 42.4°F5.8°C -168.6°F-111.4°C - Calm Calm 2.8 mph4.5 kmh 29.62 in1003.0 mb 0.00 in0.0 mm 0.00 in0.0 mm 0.00 in0.0 mm
01:20 AM 42.4°F5.8°C -168.6°F-111.4°C - Calm Calm 2.8 mph4.5 kmh 29.62 in1003.0 mb 0.00 in0.0 mm 0.00 in0.0 mm 0.00 in0.0 mm
01:35 AM 42.3°F5.7°C -168.6°F-111.4°C - Calm Calm 2.0 mph3.2 kmh 29.62 in1003.0 mb 0.00 in0.0 mm 0.00 in0.0 mm 0.00 in0.0 mm
01:50 AM 42.3°F5.7°C -168.6°F-111.4°C - 1.4 mph N2.3 kmh N 3.4 mph5.5 kmh 29.62 in1003.0 mb 0.00 in0.0 mm 0.00 in0.0 mm 0.00 in0.0 mm
02:05 AM 42.3°F5.7°C -168.6°F-111.4°C - 1.4 mph N2.3 kmh N 3.4 mph5.5 kmh 29.61 in1002.7 mb 0.00 in0.0 mm 0.00 in0.0 mm 0.00 in0.0 mm
02:20 AM 42.3°F5.7°C -168.6°F-111.4°C - 1.4 mph N2.3 kmh N 4.0 mph6.4 kmh 29.61 in1002.7 mb 0.00 in0.0 mm 0.00 in0.0 mm 0.00 in0.0 mm
02:35 AM 42.4°F5.8°C -168.6°F-111.4°C - 0.6 mph N1.0 kmh N 2.8 mph4.5 kmh 29.62 in1003.0 mb 0.00 in0.0 mm 0.00 in0.0 mm 0.00 in0.0 mm
02:50 AM 42.8°F6.0°C -168.5°F-111.4°C - 0.6 mph N1.0 kmh N 2.8 mph4.5 kmh 29.61 in1002.7 mb 0.00 in0.0 mm 0.00 in0.0 mm 0.00 in0.0 mm
03:05 AM 42.8°F6.0°C -168.5°F-111.4°C - 1.4 mph N2.3 kmh N 2.8 mph4.5 kmh 29.61 in1002.7 mb 0.00 in0.0 mm 0.00 in0.0 mm 0.00 in0.0 mm
03:20 AM 42.8°F6.0°C -168.5°F-111.4°C - 0.6 mph N1.0 kmh N 2.0 mph3.2 kmh 29.61 in1002.7 mb 0.00 in0.0 mm 0.00 in0.0 mm 0.00 in0.0 mm
03:35 AM 43.0°F6.1°C -168.5°F-111.4°C - Calm Calm 2.8 mph4.5 kmh 29.61 in1002.7 mb 0.00 in0.0 mm 0.00 in0.0 mm 0.00 in0.0 mm
03:50 AM 42.8°F6.0°C -168.5°F-111.4°C - 1.4 mph N2.3 kmh N 2.8 mph4.5 kmh 29.60 in1002.4 mb 0.00 in0.0 mm 0.00 in0.0 mm 0.00 in0.0 mm
04:05 AM 43.0°F6.1°C -168.5°F-111.4°C - 1.4 mph N2.3 kmh N 3.4 mph5.5 kmh 29.60 in1002.4 mb 0.00 in0.0 mm 0.00 in0.0 mm 0.00 in0.0 mm
04:21 AM 43.0°F6.1°C -168.5°F-111.4°C - 0.6 mph N1.0 kmh N 3.4 mph5.5 kmh 29.60 in1002.4 mb 0.00 in0.0 mm 0.00 in0.0 mm 0.00 in0.0 mm
04:35 AM 43.2°F6.2°C -168.5°F-111.4°C - 2.0 mph N3.2 kmh N 4.8 mph7.7 kmh 29.60 in1002.4 mb 0.00 in0.0 mm 0.00 in0.0 mm 0.00 in0.0 mm
04:50 AM 43.3°F6.3°C -168.5°F-111.4°C - 1.4 mph N2.3 kmh N 4.0 mph6.4 kmh 29.60 in1002.4 mb 0.00 in0.0 mm 0.00 in0.0 mm 0.00 in0.0 mm
05:05 AM 43.7°F6.5°C -168.4°F-111.3°C - 1.4 mph N2.3 kmh N 2.8 mph4.5 kmh 29.60 in1002.4 mb 0.00 in0.0 mm 0.00 in0.0 mm 0.00 in0.0 mm
05:20 AM 43.7°F6.5°C -168.4°F-111.3°C - 1.4 mph N2.3 kmh N 4.8 mph7.7 kmh 29.60 in1002.4 mb 0.00 in0.0 mm 0.00 in0.0 mm 0.00 in0.0 mm
05:35 AM 43.9°F6.6°C -168.4°F-111.3°C - 0.6 mph N1.0 kmh N 2.0 mph3.2 kmh 29.59 in1002.0 mb 0.00 in0.0 mm 0.00 in0.0 mm 0.00 in0.0 mm
05:50 AM 44.1°F6.7°C -168.4°F-111.3°C - 0.6 mph N1.0 kmh N 2.0 mph3.2 kmh 29.59 in1002.0 mb 0.00 in0.0 mm 0.00 in0.0 mm 0.00 in0.0 mm
06:05 AM 44.1°F6.7°C -168.4°F-111.3°C - 0.6 mph N1.0 kmh N 3.4 mph5.5 kmh 29.59 in1002.0 mb 0.00 in0.0 mm 0.00 in0.0 mm 0.00 in0.0 mm
06:20 AM 44.2°F6.8°C -168.4°F-111.3°C - 1.4 mph N2.3 kmh N 3.4 mph5.5 kmh 29.59 in1002.0 mb 0.00 in0.0 mm 0.00 in0.0 mm 0.00 in0.0 mm
06:35 AM 44.4°F6.9°C -168.4°F-111.3°C - 1.4 mph N2.3 kmh N 4.0 mph6.4 kmh 29.59 in1002.0 mb 0.00 in0.0 mm 0.00 in0.0 mm 0.00 in0.0 mm
06:50 AM 44.6°F7.0°C -168.3°F-111.3°C - Calm Calm 1.4 mph2.3 kmh 29.59 in1002.0 mb 0.00 in0.0 mm 0.00 in0.0 mm 0.00 in0.0 mm
07:05 AM 44.8°F7.1°C -8.5°F-22.5°C 10% 0.6 mph N1.0 kmh N 2.0 mph3.2 kmh 29.58 in1001.7 mb 0.00 in0.0 mm 0.00 in0.0 mm 0.00 in0.0 mm
07:20 AM 44.8°F7.1°C -6.6°F-21.4°C 11% 1.4 mph N2.3 kmh N 2.8 mph4.5 kmh 29.58 in1001.7 mb 0.00 in0.0 mm 0.00 in0.0 mm 0.00 in0.0 mm
07:35 AM 45.1°F7.3°C -6.3°F-21.3°C 11% 1.4 mph N2.3 kmh N 3.4 mph5.5 kmh 29.58 in1001.7 mb 0.00 in0.0 mm 0.00 in0.0 mm 0.00 in0.0 mm
07:50 AM 45.1°F7.3°C -4.5°F-20.3°C 12% 1.4 mph N2.3 kmh N 4.0 mph6.4 kmh 29.58 in1001.7 mb 0.00 in0.0 mm 0.00 in0.0 mm 0.00 in0.0 mm
08:05 AM 45.3°F7.4°C -4.4°F-20.2°C 12% Calm Calm 2.8 mph4.5 kmh 29.58 in1001.7 mb 0.00 in0.0 mm 0.00 in0.0 mm 0.00 in0.0 mm
08:20 AM 45.5°F7.5°C -2.6°F-19.2°C 13% 0.6 mph N1.0 kmh N 2.0 mph3.2 kmh 29.59 in1002.0 mb 0.00 in0.0 mm 0.00 in0.0 mm 0.00 in0.0 mm
08:35 AM 45.9°F7.7°C -2.3°F-19.1°C 13% 2.8 mph N4.5 kmh N 5.4 mph8.7 kmh 29.59 in1002.0 mb 0.00 in0.0 mm 0.00 in0.0 mm 0.00 in0.0 mm
08:50 AM 46.0°F7.8°C -0.6°F-18.1°C 14% 1.4 mph N2.3 kmh N 4.8 mph7.7 kmh 29.58 in1001.7 mb 0.00 in0.0 mm 0.00 in0.0 mm 0.00 in0.0 mm
09:05 AM 46.4°F8.0°C -0.4°F-18.0°C 14% 3.4 mph N5.5 kmh N 6.2 mph10.0 kmh 29.58 in1001.7 mb 0.00 in0.0 mm 0.00 in0.0 mm 0.00 in0.0 mm
09:20 AM 46.8°F8.2°C -0.1°F-17.8°C 14% 1.4 mph N2.3 kmh N 4.0 mph6.4 kmh 29.58 in1001.7 mb 0.00 in0.0 mm 0.00 in0.0 mm 0.00 in0.0 mm
09:35 AM 47.1°F8.4°C 0.2°F-17.7°C 14% 2.0 mph N3.2 kmh N 4.0 mph6.4 kmh 29.58 in1001.7 mb 0.00 in0.0 mm 0.00 in0.0 mm 0.00 in0.0 mm
09:50 AM 47.3°F8.5°C -1.2°F-18.4°C 13% 2.0 mph N3.2 kmh N 5.4 mph8.7 kmh 29.58 in1001.7 mb 0.00 in0.0 mm 0.00 in0.0 mm 0.00 in0.0 mm
10:05 AM 47.5°F8.6°C -1.0°F-18.3°C 13% 1.4 mph N2.3 kmh N 4.0 mph6.4 kmh 29.58 in1001.7 mb 0.00 in0.0 mm 0.00 in0.0 mm 0.00 in0.0 mm
10:20 AM 48.0°F8.9°C -4.1°F-20.1°C 11% 2.8 mph N4.5 kmh N 5.4 mph8.7 kmh 29.58 in1001.7 mb 0.00 in0.0 mm 0.00 in0.0 mm 0.00 in0.0 mm
10:35 AM 47.8°F8.8°C -6.1°F-21.2°C 10% 2.0 mph N3.2 kmh N 5.4 mph8.7 kmh 29.58 in1001.7 mb 0.00 in0.0 mm 0.00 in0.0 mm 0.00 in0.0 mm
10:50 AM 48.0°F8.9°C -168.0°F-111.1°C - 0.6 mph N1.0 kmh N 2.8 mph4.5 kmh 29.57 in1001.4 mb 0.00 in0.0 mm 0.00 in0.0 mm 0.00 in0.0 mm
11:05 AM 48.0°F8.9°C -168.0°F-111.1°C - 2.0 mph N3.2 kmh N 4.0 mph6.4 kmh 29.57 in1001.4 mb 0.00 in0.0 mm 0.00 in0.0 mm 0.00 in0.0 mm
11:20 AM 48.2°F9.0°C -168.0°F-111.1°C - 2.0 mph N3.2 kmh N 4.8 mph7.7 kmh 29.57 in1001.4 mb 0.00 in0.0 mm 0.00 in0.0 mm 0.00 in0.0 mm
11:35 AM 48.2°F9.0°C -168.0°F-111.1°C - 1.4 mph N2.3 kmh N 2.8 mph4.5 kmh 29.57 in1001.4 mb 0.00 in0.0 mm 0.00 in0.0 mm 0.00 in0.0 mm
11:50 AM 48.2°F9.0°C -168.0°F-111.1°C - 2.0 mph N3.2 kmh N 6.8 mph10.9 kmh 29.56 in1001.0 mb 0.00 in0.0 mm 0.00 in0.0 mm 0.00 in0.0 mm
12:05 PM 48.4°F9.1°C -168.0°F-111.1°C - 0.6 mph N1.0 kmh N 3.4 mph5.5 kmh 29.56 in1001.0 mb 0.00 in0.0 mm 0.00 in0.0 mm 0.00 in0.0 mm
12:20 PM 49.1°F9.5°C -167.9°F-111.1°C - Calm Calm 4.0 mph6.4 kmh 29.55 in1000.7 mb 0.00 in0.0 mm 0.00 in0.0 mm 0.00 in0.0 mm
12:35 PM 49.1°F9.5°C -167.9°F-111.1°C - 1.4 mph N2.3 kmh N 5.4 mph8.7 kmh 29.55 in1000.7 mb 0.00 in0.0 mm 0.00 in0.0 mm 0.00 in0.0 mm
12:50 PM 48.9°F9.4°C -167.9°F-111.1°C - 0.6 mph N1.0 kmh N 2.8 mph4.5 kmh 29.55 in1000.7 mb 0.00 in0.0 mm 0.00 in0.0 mm 0.00 in0.0 mm
01:05 PM 48.9°F9.4°C -167.9°F-111.1°C - 2.8 mph N4.5 kmh N 6.2 mph10.0 kmh 29.54 in1000.3 mb 0.00 in0.0 mm 0.00 in0.0 mm 0.00 in0.0 mm
01:20 PM 49.1°F9.5°C -167.9°F-111.1°C - 2.0 mph N3.2 kmh N 3.4 mph5.5 kmh 29.54 in1000.3 mb 0.00 in0.0 mm 0.00 in0.0 mm 0.00 in0.0 mm
01:35 PM 49.1°F9.5°C -167.9°F-111.1°C - 2.0 mph N3.2 kmh N 5.4 mph8.7 kmh 29.53 in1000.0 mb 0.00 in0.0 mm 0.00 in0.0 mm 0.00 in0.0 mm
01:50 PM 48.7°F9.3°C -167.9°F-111.1°C - 2.0 mph N3.2 kmh N 6.8 mph10.9 kmh 29.54 in1000.3 mb 0.00 in0.0 mm 0.00 in0.0 mm 0.00 in0.0 mm
02:05 PM 48.7°F9.3°C -167.9°F-111.1°C - 1.4 mph N2.3 kmh N 3.4 mph5.5 kmh 29.53 in1000.0 mb 0.00 in0.0 mm 0.00 in0.0 mm 0.00 in0.0 mm
02:20 PM 48.4°F9.1°C -168.0°F-111.1°C - 2.0 mph N3.2 kmh N 4.0 mph6.4 kmh 29.53 in1000.0 mb 0.00 in0.0 mm 0.00 in0.0 mm 0.00 in0.0 mm
02:35 PM 48.2°F9.0°C -168.0°F-111.1°C - 2.8 mph N4.5 kmh N 6.2 mph10.0 kmh 29.53 in1000.0 mb 0.00 in0.0 mm 0.00 in0.0 mm 0.00 in0.0 mm
02:50 PM 48.0°F8.9°C -168.0°F-111.1°C - 4.0 mph N6.4 kmh N 7.4 mph11.9 kmh 29.52 in999.7 mb 0.00 in0.0 mm 0.00 in0.0 mm 0.00 in0.0 mm
03:05 PM 47.5°F8.6°C -168.1°F-111.2°C - 2.0 mph N3.2 kmh N 6.2 mph10.0 kmh 29.52 in999.7 mb 0.00 in0.0 mm 0.00 in0.0 mm 0.00 in0.0 mm
03:20 PM 47.7°F8.7°C -168.0°F-111.1°C - 2.0 mph N3.2 kmh N 4.0 mph6.4 kmh 29.52 in999.7 mb 0.00 in0.0 mm 0.00 in0.0 mm 0.00 in0.0 mm
03:35 PM 47.7°F8.7°C -168.0°F-111.1°C - 2.8 mph N4.5 kmh N 4.8 mph7.7 kmh 29.51 in999.3 mb 0.00 in0.0 mm 0.00 in0.0 mm 0.00 in0.0 mm
03:50 PM 47.5°F8.6°C -168.1°F-111.2°C - 2.0 mph N3.2 kmh N 4.0 mph6.4 kmh 29.51 in999.3 mb 0.00 in0.0 mm 0.00 in0.0 mm 0.00 in0.0 mm
04:05 PM 47.5°F8.6°C -168.1°F-111.2°C - 1.4 mph N2.3 kmh N 4.0 mph6.4 kmh 29.51 in999.3 mb 0.00 in0.0 mm 0.00 in0.0 mm 0.00 in0.0 mm
04:20 PM 47.5°F8.6°C -168.1°F-111.2°C - 1.4 mph N2.3 kmh N 3.4 mph5.5 kmh 29.50 in999.0 mb 0.00 in0.0 mm 0.00 in0.0 mm 0.00 in0.0 mm
04:35 PM 47.7°F8.7°C -168.0°F-111.1°C - 3.4 mph N5.5 kmh N 6.2 mph10.0 kmh 29.50 in999.0 mb 0.00 in0.0 mm 0.00 in0.0 mm 0.00 in0.0 mm
04:50 PM 47.5°F8.6°C -168.1°F-111.2°C - 1.4 mph N2.3 kmh N 3.4 mph5.5 kmh 29.50 in999.0 mb 0.00 in0.0 mm 0.00 in0.0 mm 0.00 in0.0 mm
05:05 PM 47.3°F8.5°C -168.1°F-111.2°C - 1.4 mph N2.3 kmh N 4.0 mph6.4 kmh 29.50 in999.0 mb 0.00 in0.0 mm 0.00 in0.0 mm 0.00 in0.0 mm
05:20 PM 47.1°F8.4°C -168.1°F-111.2°C - 3.4 mph N5.5 kmh N 7.4 mph11.9 kmh 29.50 in999.0 mb 0.00 in0.0 mm 0.00 in0.0 mm 0.00 in0.0 mm
05:35 PM 47.1°F8.4°C -168.1°F-111.2°C - 2.8 mph N4.5 kmh N 8.8 mph14.2 kmh 29.49 in998.6 mb 0.00 in0.0 mm 0.00 in0.0 mm 0.00 in0.0 mm
05:50 PM 47.3°F8.5°C -168.1°F-111.2°C - 2.8 mph N4.5 kmh N 4.8 mph7.7 kmh 29.49 in998.6 mb 0.00 in0.0 mm 0.00 in0.0 mm 0.00 in0.0 mm
06:05 PM 47.3°F8.5°C -168.1°F-111.2°C - 1.4 mph N2.3 kmh N 4.0 mph6.4 kmh 29.49 in998.6 mb 0.00 in0.0 mm 0.00 in0.0 mm 0.00 in0.0 mm
06:20 PM 47.3°F8.5°C -168.1°F-111.2°C - 1.4 mph N2.3 kmh N 4.8 mph7.7 kmh 29.49 in998.6 mb 0.00 in0.0 mm 0.00 in0.0 mm 0.00 in0.0 mm
06:35 PM 47.3°F8.5°C -6.6°F-21.4°C 10% 2.0 mph N3.2 kmh N 4.0 mph6.4 kmh 29.48 in998.3 mb 0.00 in0.0 mm 0.00 in0.0 mm 0.00 in0.0 mm
06:50 PM 46.9°F8.3°C -4.9°F-20.5°C 11% 2.8 mph N4.5 kmh N 4.8 mph7.7 kmh 29.48 in998.3 mb 0.00 in0.0 mm 0.00 in0.0 mm 0.00 in0.0 mm
07:05 PM 47.3°F8.5°C -2.8°F-19.3°C 12% 2.8 mph N4.5 kmh N 5.4 mph8.7 kmh 29.47 in998.0 mb 0.00 in0.0 mm 0.00 in0.0 mm 0.00 in0.0 mm
07:20 PM 47.5°F8.6°C -1.0°F-18.3°C 13% 2.0 mph N3.2 kmh N 4.0 mph6.4 kmh 29.47 in998.0 mb 0.00 in0.0 mm 0.00 in0.0 mm 0.00 in0.0 mm
07:35 PM 47.5°F8.6°C 0.5°F-17.5°C 14% 2.0 mph N3.2 kmh N 4.8 mph7.7 kmh 29.47 in998.0 mb 0.00 in0.0 mm 0.00 in0.0 mm 0.00 in0.0 mm
07:50 PM 47.5°F8.6°C 0.5°F-17.5°C 14% 0.6 mph N1.0 kmh N 3.4 mph5.5 kmh 29.46 in997.6 mb 0.00 in0.0 mm 0.00 in0.0 mm 0.00 in0.0 mm
08:05 PM 47.7°F8.7°C 2.1°F-16.6°C 15% 2.0 mph N3.2 kmh N 4.8 mph7.7 kmh 29.46 in997.6 mb 0.00 in0.0 mm 0.00 in0.0 mm 0.00 in0.0 mm
08:20 PM 47.7°F8.7°C 3.5°F-15.8°C 16% 3.4 mph N5.5 kmh N 6.2 mph10.0 kmh 29.46 in997.6 mb 0.00 in0.0 mm 0.00 in0.0 mm 0.00 in0.0 mm
08:35 PM 47.7°F8.7°C 3.5°F-15.8°C 16% 2.8 mph N4.5 kmh N 4.8 mph7.7 kmh 29.46 in997.6 mb 0.00 in0.0 mm 0.00 in0.0 mm 0.00 in0.0 mm
08:50 PM 47.7°F8.7°C 4.8°F-15.1°C 17% 4.0 mph N6.4 kmh N 9.6 mph15.4 kmh 29.45 in997.3 mb 0.00 in0.0 mm 0.00 in0.0 mm 0.00 in0.0 mm
09:05 PM 48.2°F9.0°C 5.2°F-14.9°C 17% 0.6 mph N1.0 kmh N 4.0 mph6.4 kmh 29.45 in997.3 mb 0.00 in0.0 mm 0.00 in0.0 mm 0.00 in0.0 mm
09:20 PM 48.2°F9.0°C 6.5°F-14.2°C 18% 1.4 mph N2.3 kmh N 4.0 mph6.4 kmh 29.44 in997.0 mb 0.00 in0.0 mm 0.00 in0.0 mm 0.00 in0.0 mm
09:35 PM 48.2°F9.0°C 6.5°F-14.2°C 18% 2.8 mph N4.5 kmh N 4.0 mph6.4 kmh 29.44 in997.0 mb 0.00 in0.0 mm 0.00 in0.0 mm 0.00 in0.0 mm
09:50 PM 48.4°F9.1°C 7.8°F-13.4°C 19% 2.8 mph N4.5 kmh N 4.0 mph6.4 kmh 29.43 in996.6 mb 0.01 in0.3 mm 0.05 in1.3 mm 0.01 in0.3 mm
10:05 PM 48.7°F9.3°C 8.1°F-13.3°C 19% 1.4 mph N2.3 kmh N 3.4 mph5.5 kmh 29.43 in996.6 mb 0.01 in0.3 mm 0.00 in0.0 mm 0.01 in0.3 mm
10:20 PM 48.7°F9.3°C 9.3°F-12.6°C 20% 2.0 mph N3.2 kmh N 5.4 mph8.7 kmh 29.43 in996.6 mb 0.01 in0.3 mm 0.00 in0.0 mm 0.01 in0.3 mm
10:35 PM 48.9°F9.4°C 10.5°F-11.9°C 21% 3.4 mph N5.5 kmh N 6.2 mph10.0 kmh 29.42 in996.3 mb 0.02 in0.5 mm 0.05 in1.3 mm 0.02 in0.5 mm
10:50 PM 49.1°F9.5°C 10.6°F-11.9°C 21% 2.8 mph N4.5 kmh N 4.0 mph6.4 kmh 29.43 in996.6 mb 0.02 in0.5 mm 0.00 in0.0 mm 0.02 in0.5 mm
11:05 PM 49.5°F9.7°C 12.0°F-11.1°C 22% 2.0 mph N3.2 kmh N 3.4 mph5.5 kmh 29.42 in996.3 mb 0.02 in0.5 mm 0.00 in0.0 mm 0.02 in0.5 mm
11:20 PM 49.5°F9.7°C 12.0°F-11.1°C 22% 2.8 mph N4.5 kmh N 6.8 mph10.9 kmh 29.43 in996.6 mb 0.00 in0.0 mm 0.00 in0.0 mm 0.02 in0.5 mm
11:35 PM 49.5°F9.7°C 13.0°F-10.6°C 23% 3.4 mph N5.5 kmh N 5.4 mph8.7 kmh 29.42 in996.3 mb 0.00 in0.0 mm 0.00 in0.0 mm 0.02 in0.5 mm
11:50 PM 50.0°F10.0°C 13.4°F-10.3°C 23% 2.0 mph N3.2 kmh N 4.8 mph7.7 kmh 29.42 in996.3 mb 0.00 in0.0 mm 0.00 in0.0 mm 0.02 in0.5 mm